sensor_id;sensor_type;location;lat;lon;timestamp;P1;durP1;ratioP1;P2;durP2;ratioP2
66609;SDS011;53468;48.276;14.416;2022-11-02T00:05:38;37.33;;;20.80;;
66609;SDS011;53468;48.276;14.416;2022-11-02T00:17:44;33.60;;;18.90;;
66609;SDS011;53468;48.276;14.416;2022-11-02T00:23:35;36.90;;;19.33;;
66609;SDS011;53468;48.276;14.416;2022-11-02T00:35:38;31.98;;;16.60;;
66609;SDS011;53468;48.276;14.416;2022-11-02T00:41:28;32.42;;;16.98;;
66609;SDS011;53468;48.276;14.416;2022-11-02T00:47:15;33.70;;;16.98;;
66609;SDS011;53468;48.276;14.416;2022-11-02T00:52:58;35.50;;;19.75;;
66609;SDS011;53468;48.276;14.416;2022-11-02T00:58:33;34.25;;;17.40;;
66609;SDS011;53468;48.276;14.416;2022-11-02T01:10:51;30.95;;;17.02;;
66609;SDS011;53468;48.276;14.416;2022-11-02T01:16:30;28.73;;;15.23;;
66609;SDS011;53468;48.276;14.416;2022-11-02T01:22:08;28.48;;;14.13;;
66609;SDS011;53468;48.276;14.416;2022-11-02T01:27:58;27.08;;;15.30;;
66609;SDS011;53468;48.276;14.416;2022-11-02T01:33:41;37.47;;;16.55;;
66609;SDS011;53468;48.276;14.416;2022-11-02T01:39:16;29.70;;;17.23;;
66609;SDS011;53468;48.276;14.416;2022-11-02T01:56:41;30.05;;;15.13;;
66609;SDS011;53468;48.276;14.416;2022-11-02T02:02:39;27.13;;;16.48;;
66609;SDS011;53468;48.276;14.416;2022-11-02T02:08:19;30.30;;;16.20;;
66609;SDS011;53468;48.276;14.416;2022-11-02T02:14:03;34.00;;;16.70;;
66609;SDS011;53468;48.276;14.416;2022-11-02T02:19:50;33.10;;;16.95;;
66609;SDS011;53468;48.276;14.416;2022-11-02T02:25:37;29.33;;;16.52;;
66609;SDS011;53468;48.276;14.416;2022-11-02T02:31:45;31.85;;;16.10;;
66609;SDS011;53468;48.276;14.416;2022-11-02T02:37:32;28.05;;;15.32;;
66609;SDS011;53468;48.276;14.416;2022-11-02T02:43:19;55.28;;;16.80;;
66609;SDS011;53468;48.276;14.416;2022-11-02T03:01:43;33.42;;;17.40;;
66609;SDS011;53468;48.276;14.416;2022-11-02T03:07:47;27.83;;;16.13;;
66609;SDS011;53468;48.276;14.416;2022-11-02T06:20:23;77.45;;;23.70;;
66609;SDS011;53468;48.276;14.416;2022-11-02T06:25:59;116.03;;;24.40;;
66609;SDS011;53468;48.276;14.416;2022-11-02T06:31:32;111.72;;;24.77;;
66609;SDS011;53468;48.276;14.416;2022-11-02T06:37:09;96.38;;;25.48;;
66609;SDS011;53468;48.276;14.416;2022-11-02T06:42:41;99.45;;;26.33;;
66609;SDS011;53468;48.276;14.416;2022-11-02T06:48:14;107.95;;;27.95;;
66609;SDS011;53468;48.276;14.416;2022-11-02T06:53:48;146.90;;;29.13;;
66609;SDS011;53468;48.276;14.416;2022-11-02T06:59:20;209.63;;;32.53;;
66609;SDS011;53468;48.276;14.416;2022-11-02T07:04:52;267.50;;;36.05;;
66609;SDS011;53468;48.276;14.416;2022-11-02T07:10:25;405.38;;;45.35;;
66609;SDS011;53468;48.276;14.416;2022-11-02T07:15:58;224.68;;;35.00;;
66609;SDS011;53468;48.276;14.416;2022-11-02T07:21:30;183.23;;;31.98;;
66609;SDS011;53468;48.276;14.416;2022-11-02T07:27:04;162.40;;;28.40;;
66609;SDS011;53468;48.276;14.416;2022-11-02T07:32:41;180.10;;;31.02;;
66609;SDS011;53468;48.276;14.416;2022-11-02T07:38:14;231.15;;;32.45;;
66609;SDS011;53468;48.276;14.416;2022-11-02T07:43:48;137.48;;;28.17;;
66609;SDS011;53468;48.276;14.416;2022-11-02T07:49:20;56.88;;;24.15;;
66609;SDS011;53468;48.276;14.416;2022-11-02T07:54:52;72.53;;;21.00;;
66609;SDS011;53468;48.276;14.416;2022-11-02T08:00:26;72.45;;;22.13;;
66609;SDS011;53468;48.276;14.416;2022-11-02T08:06:00;102.70;;;22.30;;
66609;SDS011;53468;48.276;14.416;2022-11-02T08:11:33;83.85;;;25.27;;
66609;SDS011;53468;48.276;14.416;2022-11-02T08:17:06;131.00;;;26.52;;
66609;SDS011;53468;48.276;14.416;2022-11-02T08:22:38;115.18;;;26.60;;
66609;SDS011;53468;48.276;14.416;2022-11-02T08:28:12;50.05;;;24.48;;
66609;SDS011;53468;48.276;14.416;2022-11-02T08:33:47;140.85;;;28.65;;
66609;SDS011;53468;48.276;14.416;2022-11-02T08:39:19;76.35;;;25.23;;
66609;SDS011;53468;48.276;14.416;2022-11-02T08:44:51;90.65;;;28.45;;
66609;SDS011;53468;48.276;14.416;2022-11-02T08:50:24;50.55;;;25.20;;
66609;SDS011;53468;48.276;14.416;2022-11-02T08:55:57;61.55;;;29.98;;
66609;SDS011;53468;48.276;14.416;2022-11-02T09:01:29;58.22;;;28.23;;
66609;SDS011;53468;48.276;14.416;2022-11-02T09:07:03;69.32;;;33.72;;
66609;SDS011;53468;48.276;14.416;2022-11-02T09:12:35;46.80;;;26.45;;
66609;SDS011;53468;48.276;14.416;2022-11-02T09:18:07;44.72;;;24.25;;
66609;SDS011;53468;48.276;14.416;2022-11-02T09:23:41;34.38;;;20.17;;
66609;SDS011;53468;48.276;14.416;2022-11-02T09:29:17;32.47;;;17.70;;
66609;SDS011;53468;48.276;14.416;2022-11-02T09:34:49;27.02;;;15.98;;
66609;SDS011;53468;48.276;14.416;2022-11-02T09:40:23;18.23;;;10.80;;
66609;SDS011;53468;48.276;14.416;2022-11-02T09:45:58;16.23;;;10.00;;
66609;SDS011;53468;48.276;14.416;2022-11-02T09:51:33;21.85;;;11.55;;
66609;SDS011;53468;48.276;14.416;2022-11-02T09:57:09;18.27;;;11.23;;
66609;SDS011;53468;48.276;14.416;2022-11-02T10:02:47;16.90;;;9.80;;
66609;SDS011;53468;48.276;14.416;2022-11-02T10:08:29;16.90;;;9.73;;
66609;SDS011;53468;48.276;14.416;2022-11-02T10:14:11;20.25;;;9.50;;
66609;SDS011;53468;48.276;14.416;2022-11-02T10:19:50;16.75;;;9.90;;
66609;SDS011;53468;48.276;14.416;2022-11-02T10:25:25;19.13;;;8.88;;
66609;SDS011;53468;48.276;14.416;2022-11-02T10:30:59;12.25;;;6.25;;
66609;SDS011;53468;48.276;14.416;2022-11-02T10:36:35;8.65;;;5.05;;
66609;SDS011;53468;48.276;14.416;2022-11-02T10:42:20;6.85;;;4.88;;
66609;SDS011;53468;48.276;14.416;2022-11-02T10:48:08;9.63;;;3.80;;
66609;SDS011;53468;48.276;14.416;2022-11-02T10:53:49;8.30;;;4.57;;
66609;SDS011;53468;48.276;14.416;2022-11-02T10:59:23;8.95;;;4.22;;
66609;SDS011;53468;48.276;14.416;2022-11-02T11:04:58;8.73;;;5.03;;
66609;SDS011;53468;48.276;14.416;2022-11-02T11:10:43;10.40;;;3.83;;
66609;SDS011;53468;48.276;14.416;2022-11-02T11:16:16;9.55;;;3.83;;
66609;SDS011;53468;48.276;14.416;2022-11-02T11:21:49;5.78;;;3.53;;
66609;SDS011;53468;48.276;14.416;2022-11-02T11:27:22;9.77;;;3.50;;
66609;SDS011;53468;48.276;14.416;2022-11-02T11:32:54;11.40;;;2.78;;
66609;SDS011;53468;48.276;14.416;2022-11-02T11:38:28;5.65;;;2.75;;
66609;SDS011;53468;48.276;14.416;2022-11-02T11:44:01;6.72;;;3.25;;
66609;SDS011;53468;48.276;14.416;2022-11-02T11:49:34;7.03;;;3.53;;
66609;SDS011;53468;48.276;14.416;2022-11-02T11:55:22;16.75;;;2.85;;
66609;SDS011;53468;48.276;14.416;2022-11-02T12:01:03;10.82;;;3.25;;
66609;SDS011;53468;48.276;14.416;2022-11-02T12:06:40;9.90;;;3.28;;
66609;SDS011;53468;48.276;14.416;2022-11-02T12:12:23;6.47;;;3.57;;
66609;SDS011;53468;48.276;14.416;2022-11-02T12:18:04;6.90;;;2.00;;
66609;SDS011;53468;48.276;14.416;2022-11-02T12:29:51;5.60;;;2.40;;
66609;SDS011;53468;48.276;14.416;2022-11-02T12:35:40;10.73;;;2.85;;
66609;SDS011;53468;48.276;14.416;2022-11-02T12:41:33;8.40;;;2.58;;
66609;SDS011;53468;48.276;14.416;2022-11-02T12:47:24;4.43;;;1.65;;
66609;SDS011;53468;48.276;14.416;2022-11-02T12:53:16;5.68;;;2.85;;
66609;SDS011;53468;48.276;14.416;2022-11-02T12:58:55;6.90;;;2.05;;
66609;SDS011;53468;48.276;14.416;2022-11-02T13:04:31;4.63;;;1.70;;
66609;SDS011;53468;48.276;14.416;2022-11-02T13:10:12;6.13;;;2.00;;
66609;SDS011;53468;48.276;14.416;2022-11-02T13:15:48;7.70;;;2.00;;
66609;SDS011;53468;48.276;14.416;2022-11-02T13:21:26;6.95;;;1.92;;
66609;SDS011;53468;48.276;14.416;2022-11-02T13:27:04;5.88;;;2.05;;
66609;SDS011;53468;48.276;14.416;2022-11-02T13:32:38;7.57;;;2.10;;
66609;SDS011;53468;48.276;14.416;2022-11-02T13:38:20;3.85;;;1.85;;
66609;SDS011;53468;48.276;14.416;2022-11-02T13:50:21;5.10;;;1.73;;
66609;SDS011;53468;48.276;14.416;2022-11-02T13:55:57;3.67;;;1.73;;
66609;SDS011;53468;48.276;14.416;2022-11-02T14:01:31;6.13;;;2.15;;
66609;SDS011;53468;48.276;14.416;2022-11-02T14:07:06;8.23;;;2.83;;
66609;SDS011;53468;48.276;14.416;2022-11-02T14:12:52;4.88;;;2.25;;
66609;SDS011;53468;48.276;14.416;2022-11-02T14:18:27;14.18;;;2.95;;
66609;SDS011;53468;48.276;14.416;2022-11-02T14:24:00;4.68;;;2.53;;
66609;SDS011;53468;48.276;14.416;2022-11-02T14:29:48;5.70;;;1.25;;
66609;SDS011;53468;48.276;14.416;2022-11-02T14:35:27;4.47;;;1.40;;
66609;SDS011;53468;48.276;14.416;2022-11-02T14:41:15;3.83;;;1.30;;
66609;SDS011;53468;48.276;14.416;2022-11-02T14:46:59;4.80;;;1.40;;
66609;SDS011;53468;48.276;14.416;2022-11-02T14:52:37;3.43;;;1.27;;
66609;SDS011;53468;48.276;14.416;2022-11-02T14:58:14;4.32;;;1.55;;
66609;SDS011;53468;48.276;14.416;2022-11-02T15:03:50;6.72;;;1.50;;
66609;SDS011;53468;48.276;14.416;2022-11-02T15:26:58;9.15;;;1.45;;
66609;SDS011;53468;48.276;14.416;2022-11-02T15:32:33;6.38;;;1.33;;
66609;SDS011;53468;48.276;14.416;2022-11-02T15:38:12;5.82;;;1.55;;
66609;SDS011;53468;48.276;14.416;2022-11-02T15:43:48;6.95;;;1.52;;
66609;SDS011;53468;48.276;14.416;2022-11-02T15:49:37;4.53;;;1.40;;
66609;SDS011;53468;48.276;14.416;2022-11-02T15:55:34;3.42;;;1.20;;
66609;SDS011;53468;48.276;14.416;2022-11-02T16:01:17;7.18;;;1.33;;
66609;SDS011;53468;48.276;14.416;2022-11-02T16:06:50;4.82;;;1.35;;
66609;SDS011;53468;48.276;14.416;2022-11-02T16:12:28;3.42;;;0.90;;
66609;SDS011;53468;48.276;14.416;2022-11-02T16:18:04;6.90;;;1.23;;
66609;SDS011;53468;48.276;14.416;2022-11-02T16:23:53;9.30;;;1.55;;
66609;SDS011;53468;48.276;14.416;2022-11-02T16:29:30;10.57;;;1.50;;
66609;SDS011;53468;48.276;14.416;2022-11-02T16:35:06;2.63;;;1.20;;
66609;SDS011;53468;48.276;14.416;2022-11-02T16:40:43;4.28;;;1.50;;
66609;SDS011;53468;48.276;14.416;2022-11-02T16:46:27;6.18;;;1.55;;
66609;SDS011;53468;48.276;14.416;2022-11-02T16:52:18;4.85;;;1.25;;
66609;SDS011;53468;48.276;14.416;2022-11-02T16:57:51;6.20;;;1.47;;
66609;SDS011;53468;48.276;14.416;2022-11-02T17:03:25;4.78;;;1.38;;
66609;SDS011;53468;48.276;14.416;2022-11-02T17:09:01;6.90;;;2.22;;
66609;SDS011;53468;48.276;14.416;2022-11-02T17:14:33;8.43;;;2.10;;
66609;SDS011;53468;48.276;14.416;2022-11-02T17:20:14;7.50;;;1.80;;
66609;SDS011;53468;48.276;14.416;2022-11-02T17:25:53;6.57;;;1.80;;
66609;SDS011;53468;48.276;14.416;2022-11-02T17:32:00;7.25;;;3.03;;
66609;SDS011;53468;48.276;14.416;2022-11-02T17:37:36;7.68;;;3.90;;
66609;SDS011;53468;48.276;14.416;2022-11-02T17:43:09;4.25;;;2.63;;
66609;SDS011;53468;48.276;14.416;2022-11-02T17:48:41;5.85;;;2.97;;
66609;SDS011;53468;48.276;14.416;2022-11-02T17:54:16;5.95;;;3.20;;
66609;SDS011;53468;48.276;14.416;2022-11-02T17:59:49;12.00;;;4.78;;
66609;SDS011;53468;48.276;14.416;2022-11-02T18:05:22;6.65;;;2.92;;
66609;SDS011;53468;48.276;14.416;2022-11-02T18:11:00;7.75;;;2.78;;
66609;SDS011;53468;48.276;14.416;2022-11-02T18:16:33;4.13;;;2.20;;
66609;SDS011;53468;48.276;14.416;2022-11-02T18:22:07;9.70;;;2.50;;
66609;SDS011;53468;48.276;14.416;2022-11-02T18:27:41;4.90;;;2.35;;
66609;SDS011;53468;48.276;14.416;2022-11-02T18:33:14;5.63;;;2.38;;
66609;SDS011;53468;48.276;14.416;2022-11-02T18:38:47;6.75;;;2.42;;
66609;SDS011;53468;48.276;14.416;2022-11-02T18:44:21;5.70;;;3.03;;
66609;SDS011;53468;48.276;14.416;2022-11-02T18:49:53;6.78;;;3.65;;
66609;SDS011;53468;48.276;14.416;2022-11-02T18:55:26;11.63;;;3.03;;
66609;SDS011;53468;48.276;14.416;2022-11-02T19:01:05;7.07;;;3.05;;
66609;SDS011;53468;48.276;14.416;2022-11-02T19:06:39;5.78;;;4.22;;
66609;SDS011;53468;48.276;14.416;2022-11-02T19:12:28;6.88;;;3.65;;
66609;SDS011;53468;48.276;14.416;2022-11-02T19:18:04;15.20;;;5.20;;
66609;SDS011;53468;48.276;14.416;2022-11-02T19:23:37;10.82;;;3.90;;
66609;SDS011;53468;48.276;14.416;2022-11-02T19:29:09;7.97;;;3.88;;
66609;SDS011;53468;48.276;14.416;2022-11-02T19:34:44;10.73;;;4.03;;
66609;SDS011;53468;48.276;14.416;2022-11-02T19:40:16;9.77;;;4.15;;
66609;SDS011;53468;48.276;14.416;2022-11-02T19:45:49;7.95;;;3.70;;
66609;SDS011;53468;48.276;14.416;2022-11-02T19:51:24;7.05;;;3.88;;
66609;SDS011;53468;48.276;14.416;2022-11-02T19:56:58;7.25;;;3.28;;
66609;SDS011;53468;48.276;14.416;2022-11-02T20:02:30;10.73;;;4.40;;
66609;SDS011;53468;48.276;14.416;2022-11-02T20:08:04;7.78;;;3.60;;
66609;SDS011;53468;48.276;14.416;2022-11-02T20:13:37;10.32;;;3.35;;
66609;SDS011;53468;48.276;14.416;2022-11-02T20:19:11;11.68;;;3.67;;
66609;SDS011;53468;48.276;14.416;2022-11-02T20:24:46;8.60;;;3.60;;
66609;SDS011;53468;48.276;14.416;2022-11-02T20:30:18;7.93;;;3.80;;
66609;SDS011;53468;48.276;14.416;2022-11-02T20:35:51;9.85;;;4.25;;
